sensor_id;sensor_type;location;lat;lon;timestamp;temperature;humidity
66013;DHT22;52783;50.502;8.190;2022-08-21T00:01:19;16.50;75.20
66013;DHT22;52783;50.502;8.190;2022-08-21T00:03:46;16.50;75.20
66013;DHT22;52783;50.502;8.190;2022-08-21T00:06:12;16.40;75.10
66013;DHT22;52783;50.502;8.190;2022-08-21T00:08:37;16.50;75.40
66013;DHT22;52783;50.502;8.190;2022-08-21T00:11:04;16.50;75.40
66013;DHT22;52783;50.502;8.190;2022-08-21T00:13:30;16.50;75.30
66013;DHT22;52783;50.502;8.190;2022-08-21T00:15:56;16.40;75.50
66013;DHT22;52783;50.502;8.190;2022-08-21T00:18:22;16.30;76.20
66013;DHT22;52783;50.502;8.190;2022-08-21T00:20:48;16.20;76.10
66013;DHT22;52783;50.502;8.190;2022-08-21T00:23:14;16.20;76.40
66013;DHT22;52783;50.502;8.190;2022-08-21T00:25:41;16.20;76.40
66013;DHT22;52783;50.502;8.190;2022-08-21T00:28:06;16.20;76.10
66013;DHT22;52783;50.502;8.190;2022-08-21T00:30:33;16.10;76.80
66013;DHT22;52783;50.502;8.190;2022-08-21T00:32:59;16.10;76.60
66013;DHT22;52783;50.502;8.190;2022-08-21T00:35:29;16.10;77.00
66013;DHT22;52783;50.502;8.190;2022-08-21T00:37:56;16.10;77.10
66013;DHT22;52783;50.502;8.190;2022-08-21T00:40:27;16.10;77.10
66013;DHT22;52783;50.502;8.190;2022-08-21T00:42:53;16.10;77.00
66013;DHT22;52783;50.502;8.190;2022-08-21T00:45:19;16.10;76.70
66013;DHT22;52783;50.502;8.190;2022-08-21T00:47:45;16.00;77.70
66013;DHT22;52783;50.502;8.190;2022-08-21T00:50:11;16.10;77.60
66013;DHT22;52783;50.502;8.190;2022-08-21T00:52:37;16.10;77.50
66013;DHT22;52783;50.502;8.190;2022-08-21T00:55:06;16.00;78.30
66013;DHT22;52783;50.502;8.190;2022-08-21T00:57:38;16.00;78.20
66013;DHT22;52783;50.502;8.190;2022-08-21T01:00:06;16.00;77.70
66013;DHT22;52783;50.502;8.190;2022-08-21T01:02:32;16.00;77.90
66013;DHT22;52783;50.502;8.190;2022-08-21T01:04:58;15.90;78.70
66013;DHT22;52783;50.502;8.190;2022-08-21T01:07:24;15.90;79.20
66013;DHT22;52783;50.502;8.190;2022-08-21T01:09:50;15.90;79.50
66013;DHT22;52783;50.502;8.190;2022-08-21T01:12:17;15.80;79.70
66013;DHT22;52783;50.502;8.190;2022-08-21T01:14:43;15.80;80.20
66013;DHT22;52783;50.502;8.190;2022-08-21T01:17:11;15.80;80.60
66013;DHT22;52783;50.502;8.190;2022-08-21T01:19:38;15.70;80.60
66013;DHT22;52783;50.502;8.190;2022-08-21T01:22:03;15.80;81.10
66013;DHT22;52783;50.502;8.190;2022-08-21T01:24:30;15.60;82.00
66013;DHT22;52783;50.502;8.190;2022-08-21T01:26:57;15.70;81.40
66013;DHT22;52783;50.502;8.190;2022-08-21T01:32:08;15.70;80.80
66013;DHT22;52783;50.502;8.190;2022-08-21T01:34:36;15.70;81.00
66013;DHT22;52783;50.502;8.190;2022-08-21T01:37:02;15.70;81.30
66013;DHT22;52783;50.502;8.190;2022-08-21T01:39:28;15.60;81.30
66013;DHT22;52783;50.502;8.190;2022-08-21T01:41:54;15.60;81.00
66013;DHT22;52783;50.502;8.190;2022-08-21T01:44:21;15.60;81.80
66013;DHT22;52783;50.502;8.190;2022-08-21T01:46:47;15.50;81.10
66013;DHT22;52783;50.502;8.190;2022-08-21T01:49:14;15.60;81.30
66013;DHT22;52783;50.502;8.190;2022-08-21T01:51:41;15.60;81.70
66013;DHT22;52783;50.502;8.190;2022-08-21T01:54:06;15.50;81.50
66013;DHT22;52783;50.502;8.190;2022-08-21T01:56:40;15.40;82.20
66013;DHT22;52783;50.502;8.190;2022-08-21T01:59:07;15.40;82.10
66013;DHT22;52783;50.502;8.190;2022-08-21T02:01:33;15.40;81.90
66013;DHT22;52783;50.502;8.190;2022-08-21T02:03:58;15.40;82.80
66013;DHT22;52783;50.502;8.190;2022-08-21T02:06:25;15.40;83.30
66013;DHT22;52783;50.502;8.190;2022-08-21T02:08:51;15.40;82.90
66013;DHT22;52783;50.502;8.190;2022-08-21T02:11:17;15.40;82.60
66013;DHT22;52783;50.502;8.190;2022-08-21T02:13:43;15.30;82.00
66013;DHT22;52783;50.502;8.190;2022-08-21T02:16:09;15.30;82.50
66013;DHT22;52783;50.502;8.190;2022-08-21T02:18:35;15.30;82.40
66013;DHT22;52783;50.502;8.190;2022-08-21T02:21:01;15.20;83.20
66013;DHT22;52783;50.502;8.190;2022-08-21T02:23:27;15.20;83.70
66013;DHT22;52783;50.502;8.190;2022-08-21T02:25:57;15.10;84.10
66013;DHT22;52783;50.502;8.190;2022-08-21T02:28:23;15.10;84.60
66013;DHT22;52783;50.502;8.190;2022-08-21T02:30:49;15.10;84.20
66013;DHT22;52783;50.502;8.190;2022-08-21T02:33:16;15.00;84.50
66013;DHT22;52783;50.502;8.190;2022-08-21T02:35:42;14.90;84.50
66013;DHT22;52783;50.502;8.190;2022-08-21T02:38:11;14.90;85.80
66013;DHT22;52783;50.502;8.190;2022-08-21T02:40:39;14.80;86.00
66013;DHT22;52783;50.502;8.190;2022-08-21T02:43:06;14.70;86.30
66013;DHT22;52783;50.502;8.190;2022-08-21T02:45:32;14.70;85.90
66013;DHT22;52783;50.502;8.190;2022-08-21T02:48:02;14.70;86.10
66013;DHT22;52783;50.502;8.190;2022-08-21T02:50:34;14.70;85.40
66013;DHT22;52783;50.502;8.190;2022-08-21T02:53:00;14.60;86.90
66013;DHT22;52783;50.502;8.190;2022-08-21T02:55:29;14.60;87.10
66013;DHT22;52783;50.502;8.190;2022-08-21T02:57:56;14.60;88.00
66013;DHT22;52783;50.502;8.190;2022-08-21T03:00:23;14.50;88.30
66013;DHT22;52783;50.502;8.190;2022-08-21T03:02:49;14.60;87.30
66013;DHT22;52783;50.502;8.190;2022-08-21T03:05:16;14.40;87.50
66013;DHT22;52783;50.502;8.190;2022-08-21T03:07:43;14.50;88.70
66013;DHT22;52783;50.502;8.190;2022-08-21T03:10:10;14.50;87.00
66013;DHT22;52783;50.502;8.190;2022-08-21T03:12:36;14.50;87.20
66013;DHT22;52783;50.502;8.190;2022-08-21T03:15:05;14.40;87.40
66013;DHT22;52783;50.502;8.190;2022-08-21T03:17:31;14.40;88.00
66013;DHT22;52783;50.502;8.190;2022-08-21T03:19:57;14.40;88.70
66013;DHT22;52783;50.502;8.190;2022-08-21T03:22:23;14.30;88.90
66013;DHT22;52783;50.502;8.190;2022-08-21T03:24:49;14.20;89.40
66013;DHT22;52783;50.502;8.190;2022-08-21T03:27:15;14.30;88.90
66013;DHT22;52783;50.502;8.190;2022-08-21T03:29:40;14.30;88.40
66013;DHT22;52783;50.502;8.190;2022-08-21T03:32:06;14.20;89.40
66013;DHT22;52783;50.502;8.190;2022-08-21T03:34:35;14.20;88.60
66013;DHT22;52783;50.502;8.190;2022-08-21T03:37:01;14.20;88.50
66013;DHT22;52783;50.502;8.190;2022-08-21T03:39:27;14.20;88.90
66013;DHT22;52783;50.502;8.190;2022-08-21T03:41:53;14.20;89.70
66013;DHT22;52783;50.502;8.190;2022-08-21T03:44:19;14.10;90.10
66013;DHT22;52783;50.502;8.190;2022-08-21T03:46:45;14.10;90.00
66013;DHT22;52783;50.502;8.190;2022-08-21T03:49:10;14.10;89.10
66013;DHT22;52783;50.502;8.190;2022-08-21T03:51:36;14.00;90.40
66013;DHT22;52783;50.502;8.190;2022-08-21T03:54:02;14.00;90.10
66013;DHT22;52783;50.502;8.190;2022-08-21T03:56:28;14.00;90.30
66013;DHT22;52783;50.502;8.190;2022-08-21T03:58:53;14.00;89.70
66013;DHT22;52783;50.502;8.190;2022-08-21T04:01:19;14.00;89.60
66013;DHT22;52783;50.502;8.190;2022-08-21T04:03:44;14.00;89.40
66013;DHT22;52783;50.502;8.190;2022-08-21T04:06:10;14.00;89.00
66013;DHT22;52783;50.502;8.190;2022-08-21T04:08:35;14.00;89.10
66013;DHT22;52783;50.502;8.190;2022-08-21T04:11:01;13.90;90.30
66013;DHT22;52783;50.502;8.190;2022-08-21T04:13:27;13.80;90.60
66013;DHT22;52783;50.502;8.190;2022-08-21T04:15:54;13.80;90.90
66013;DHT22;52783;50.502;8.190;2022-08-21T04:18:20;13.80;90.40
66013;DHT22;52783;50.502;8.190;2022-08-21T04:20:49;13.90;90.50
66013;DHT22;52783;50.502;8.190;2022-08-21T04:23:18;13.70;90.70
66013;DHT22;52783;50.502;8.190;2022-08-21T04:25:44;13.80;90.90
66013;DHT22;52783;50.502;8.190;2022-08-21T04:28:09;13.80;90.70
66013;DHT22;52783;50.502;8.190;2022-08-21T04:30:35;13.80;90.70
66013;DHT22;52783;50.502;8.190;2022-08-21T04:33:00;13.80;90.80
66013;DHT22;52783;50.502;8.190;2022-08-21T04:35:27;13.80;90.70
66013;DHT22;52783;50.502;8.190;2022-08-21T04:37:53;13.80;90.80
66013;DHT22;52783;50.502;8.190;2022-08-21T04:40:20;13.80;90.40
66013;DHT22;52783;50.502;8.190;2022-08-21T04:43:01;13.80;90.70
66013;DHT22;52783;50.502;8.190;2022-08-21T04:47:55;13.90;90.50
66013;DHT22;52783;50.502;8.190;2022-08-21T04:50:25;13.90;90.30
66013;DHT22;52783;50.502;8.190;2022-08-21T04:52:52;13.90;90.10
66013;DHT22;52783;50.502;8.190;2022-08-21T04:55:18;14.00;90.30
66013;DHT22;52783;50.502;8.190;2022-08-21T04:57:45;14.20;90.00
66013;DHT22;52783;50.502;8.190;2022-08-21T05:00:12;14.40;88.20
66013;DHT22;52783;50.502;8.190;2022-08-21T05:02:40;14.40;88.70
66013;DHT22;52783;50.502;8.190;2022-08-21T05:05:06;14.70;87.60
66013;DHT22;52783;50.502;8.190;2022-08-21T05:07:32;15.00;85.60
66013;DHT22;52783;50.502;8.190;2022-08-21T05:10:00;15.30;84.60
66013;DHT22;52783;50.502;8.190;2022-08-21T05:12:26;15.40;83.30
66013;DHT22;52783;50.502;8.190;2022-08-21T05:14:52;15.60;82.40
66013;DHT22;52783;50.502;8.190;2022-08-21T05:17:17;15.90;80.80
66013;DHT22;52783;50.502;8.190;2022-08-21T05:19:43;16.10;79.80
66013;DHT22;52783;50.502;8.190;2022-08-21T05:22:08;16.10;78.40
66013;DHT22;52783;50.502;8.190;2022-08-21T05:24:34;16.50;77.30
66013;DHT22;52783;50.502;8.190;2022-08-21T05:27:00;16.60;75.20
66013;DHT22;52783;50.502;8.190;2022-08-21T05:29:26;17.00;74.00
66013;DHT22;52783;50.502;8.190;2022-08-21T05:31:52;17.10;73.10
66013;DHT22;52783;50.502;8.190;2022-08-21T05:34:19;17.60;72.10
66013;DHT22;52783;50.502;8.190;2022-08-21T05:36:45;17.60;71.50
66013;DHT22;52783;50.502;8.190;2022-08-21T05:39:11;17.80;71.10
66013;DHT22;52783;50.502;8.190;2022-08-21T05:41:37;18.00;70.70
66013;DHT22;52783;50.502;8.190;2022-08-21T05:44:03;18.30;69.20
66013;DHT22;52783;50.502;8.190;2022-08-21T05:46:29;18.40;67.50
66013;DHT22;52783;50.502;8.190;2022-08-21T05:48:54;18.50;67.40
66013;DHT22;52783;50.502;8.190;2022-08-21T05:51:20;18.70;66.70
66013;DHT22;52783;50.502;8.190;2022-08-21T05:53:46;18.90;66.00
66013;DHT22;52783;50.502;8.190;2022-08-21T05:56:12;19.10;65.10
66013;DHT22;52783;50.502;8.190;2022-08-21T05:58:37;18.90;66.30
66013;DHT22;52783;50.502;8.190;2022-08-21T06:01:04;19.50;63.40
66013;DHT22;52783;50.502;8.190;2022-08-21T06:03:32;19.20;62.60
66013;DHT22;52783;50.502;8.190;2022-08-21T06:05:59;19.80;62.40
66013;DHT22;52783;50.502;8.190;2022-08-21T06:08:26;19.30;62.00
66013;DHT22;52783;50.502;8.190;2022-08-21T06:10:53;19.80;61.00
66013;DHT22;52783;50.502;8.190;2022-08-21T06:13:20;20.10;59.70
66013;DHT22;52783;50.502;8.190;2022-08-21T06:15:46;20.40;58.80
66013;DHT22;52783;50.502;8.190;2022-08-21T06:18:13;20.00;58.50
66013;DHT22;52783;50.502;8.190;2022-08-21T06:20:39;19.50;59.60
66013;DHT22;52783;50.502;8.190;2022-08-21T06:23:05;19.90;59.00
66013;DHT22;52783;50.502;8.190;2022-08-21T06:25:30;19.70;59.10
66013;DHT22;52783;50.502;8.190;2022-08-21T06:28:07;19.80;59.50
66013;DHT22;52783;50.502;8.190;2022-08-21T06:30:34;20.50;58.50
66013;DHT22;52783;50.502;8.190;2022-08-21T06:33:00;20.80;57.20
66013;DHT22;52783;50.502;8.190;2022-08-21T06:35:27;21.30;55.60
66013;DHT22;52783;50.502;8.190;2022-08-21T06:37:54;22.20;53.40
66013;DHT22;52783;50.502;8.190;2022-08-21T06:40:20;21.90;52.60
66013;DHT22;52783;50.502;8.190;2022-08-21T06:42:45;22.50;50.90
66013;DHT22;52783;50.502;8.190;2022-08-21T06:45:11;23.00;50.10
66013;DHT22;52783;50.502;8.190;2022-08-21T06:47:37;23.00;49.20
66013;DHT22;52783;50.502;8.190;2022-08-21T06:50:03;22.60;49.70
66013;DHT22;52783;50.502;8.190;2022-08-21T06:52:30;23.30;49.30
66013;DHT22;52783;50.502;8.190;2022-08-21T06:54:55;23.40;48.60
66013;DHT22;52783;50.502;8.190;2022-08-21T06:57:21;23.50;48.70
66013;DHT22;52783;50.502;8.190;2022-08-21T06:59:47;22.40;48.70
66013;DHT22;52783;50.502;8.190;2022-08-21T07:02:12;23.10;49.80
66013;DHT22;52783;50.502;8.190;2022-08-21T07:04:38;22.60;51.90
66013;DHT22;52783;50.502;8.190;2022-08-21T07:07:03;23.60;49.40
66013;DHT22;52783;50.502;8.190;2022-08-21T07:09:29;23.20;46.80
66013;DHT22;52783;50.502;8.190;2022-08-21T07:11:55;23.70;47.00
66013;DHT22;52783;50.502;8.190;2022-08-21T07:14:22;23.80;47.90
66013;DHT22;52783;50.502;8.190;2022-08-21T07:16:49;23.40;48.60
66013;DHT22;52783;50.502;8.190;2022-08-21T07:19:14;24.40;46.10
66013;DHT22;52783;50.502;8.190;2022-08-21T07:21:40;24.80;44.30
66013;DHT22;52783;50.502;8.190;2022-08-21T07:24:06;24.30;44.60
66013;DHT22;52783;50.502;8.190;2022-08-21T07:26:31;25.00;44.70
66013;DHT22;52783;50.502;8.190;2022-08-21T07:28:57;25.50;43.40
66013;DHT22;52783;50.502;8.190;2022-08-21T07:31:24;25.70;42.20
66013;DHT22;52783;50.502;8.190;2022-08-21T07:33:50;25.70;41.60
66013;DHT22;52783;50.502;8.190;2022-08-21T07:36:16;26.00;41.90
66013;DHT22;52783;50.502;8.190;2022-08-21T07:38:42;25.70;41.10
66013;DHT22;52783;50.502;8.190;2022-08-21T07:41:29;25.80;40.60
66013;DHT22;52783;50.502;8.190;2022-08-21T07:43:58;25.40;42.40
66013;DHT22;52783;50.502;8.190;2022-08-21T07:46:25;25.50;42.70
66013;DHT22;52783;50.502;8.190;2022-08-21T07:48:52;26.20;41.40
66013;DHT22;52783;50.502;8.190;2022-08-21T07:51:19;26.00;40.50
66013;DHT22;52783;50.502;8.190;2022-08-21T07:53:50;26.20;40.20
66013;DHT22;52783;50.502;8.190;2022-08-21T07:56:16;25.10;39.30
66013;DHT22;52783;50.502;8.190;2022-08-21T07:58:42;25.60;41.20
66013;DHT22;52783;50.502;8.190;2022-08-21T08:01:08;25.40;40.90
66013;DHT22;52783;50.502;8.190;2022-08-21T08:03:34;26.30;40.40
66013;DHT22;52783;50.502;8.190;2022-08-21T08:06:00;25.80;40.10
66013;DHT22;52783;50.502;8.190;2022-08-21T08:08:26;26.00;41.00
66013;DHT22;52783;50.502;8.190;2022-08-21T08:10:52;27.60;39.30
66013;DHT22;52783;50.502;8.190;2022-08-21T08:13:19;27.00;38.20
66013;DHT22;52783;50.502;8.190;2022-08-21T08:15:44;26.90;38.70
66013;DHT22;52783;50.502;8.190;2022-08-21T08:18:10;27.70;38.20
66013;DHT22;52783;50.502;8.190;2022-08-21T08:20:36;27.70;37.70
66013;DHT22;52783;50.502;8.190;2022-08-21T08:23:01;28.00;37.00
66013;DHT22;52783;50.502;8.190;2022-08-21T08:25:27;27.60;36.70
66013;DHT22;52783;50.502;8.190;2022-08-21T08:27:53;27.70;36.70
66013;DHT22;52783;50.502;8.190;2022-08-21T08:30:19;28.30;37.20
66013;DHT22;52783;50.502;8.190;2022-08-21T08:32:46;28.20;35.90
66013;DHT22;52783;50.502;8.190;2022-08-21T08:35:12;28.60;36.10
66013;DHT22;52783;50.502;8.190;2022-08-21T08:37:39;28.20;35.10
66013;DHT22;52783;50.502;8.190;2022-08-21T08:40:10;28.40;35.70
66013;DHT22;52783;50.502;8.190;2022-08-21T08:42:36;28.80;35.50
66013;DHT22;52783;50.502;8.190;2022-08-21T08:45:14;28.10;34.70
66013;DHT22;52783;50.502;8.190;2022-08-21T08:47:47;28.40;35.70
66013;DHT22;52783;50.502;8.190;2022-08-21T08:50:23;27.80;36.00
66013;DHT22;52783;50.502;8.190;2022-08-21T08:53:02;28.20;35.80
66013;DHT22;52783;50.502;8.190;2022-08-21T08:55:40;27.80;36.80
66013;DHT22;52783;50.502;8.190;2022-08-21T08:58:09;28.70;34.50
66013;DHT22;52783;50.502;8.190;2022-08-21T09:00:38;28.70;33.80
66013;DHT22;52783;50.502;8.190;2022-08-21T09:03:04;27.00;33.80
66013;DHT22;52783;50.502;8.190;2022-08-21T09:05:46;27.70;34.30
66013;DHT22;52783;50.502;8.190;2022-08-21T09:11:38;29.20;32.70
66013;DHT22;52783;50.502;8.190;2022-08-21T09:16:51;29.10;29.90
66013;DHT22;52783;50.502;8.190;2022-08-21T09:21:50;28.70;30.10
66013;DHT22;52783;50.502;8.190;2022-08-21T09:24:47;27.90;31.50
66013;DHT22;52783;50.502;8.190;2022-08-21T09:27:18;28.80;31.10
66013;DHT22;52783;50.502;8.190;2022-08-21T09:29:47;28.00;32.50
66013;DHT22;52783;50.502;8.190;2022-08-21T09:32:22;29.30;32.00
66013;DHT22;52783;50.502;8.190;2022-08-21T09:35:05;29.40;31.50
66013;DHT22;52783;50.502;8.190;2022-08-21T09:37:35;29.70;30.80
66013;DHT22;52783;50.502;8.190;2022-08-21T09:43:01;28.90;31.60
66013;DHT22;52783;50.502;8.190;2022-08-21T09:45:27;29.30;30.00
66013;DHT22;52783;50.502;8.190;2022-08-21T09:47:53;29.70;29.00
66013;DHT22;52783;50.502;8.190;2022-08-21T09:50:25;29.70;29.30
66013;DHT22;52783;50.502;8.190;2022-08-21T09:52:54;29.40;29.50
66013;DHT22;52783;50.502;8.190;2022-08-21T09:56:16;29.20;29.50
66013;DHT22;52783;50.502;8.190;2022-08-21T09:58:51;28.00;28.80
66013;DHT22;52783;50.502;8.190;2022-08-21T10:01:23;29.70;29.70
66013;DHT22;52783;50.502;8.190;2022-08-21T10:04:02;29.80;29.00
66013;DHT22;52783;50.502;8.190;2022-08-21T10:06:28;30.10;28.40
66013;DHT22;52783;50.502;8.190;2022-08-21T10:09:14;29.20;28.40
66013;DHT22;52783;50.502;8.190;2022-08-21T10:11:56;29.00;28.80
66013;DHT22;52783;50.502;8.190;2022-08-21T10:17:27;27.60;31.80
66013;DHT22;52783;50.502;8.190;2022-08-21T10:20:10;27.30;31.40
66013;DHT22;52783;50.502;8.190;2022-08-21T10:25:23;26.50;33.90
66013;DHT22;52783;50.502;8.190;2022-08-21T10:33:11;26.30;33.90
66013;DHT22;52783;50.502;8.190;2022-08-21T10:41:35;26.30;33.70
66013;DHT22;52783;50.502;8.190;2022-08-21T10:46:57;26.50;34.60
66013;DHT22;52783;50.502;8.190;2022-08-21T10:52:38;25.90;35.30
66013;DHT22;52783;50.502;8.190;2022-08-21T10:55:18;26.20;34.40
66013;DHT22;52783;50.502;8.190;2022-08-21T11:00:46;26.00;34.00
66013;DHT22;52783;50.502;8.190;2022-08-21T11:03:17;26.00;34.00
66013;DHT22;52783;50.502;8.190;2022-08-21T11:05:50;26.40;34.00
66013;DHT22;52783;50.502;8.190;2022-08-21T11:10:52;26.20;34.10
66013;DHT22;52783;50.502;8.190;2022-08-21T11:13:52;25.70;33.20
66013;DHT22;52783;50.502;8.190;2022-08-21T11:16:49;25.90;33.40
66013;DHT22;52783;50.502;8.190;2022-08-21T11:19:35;25.90;33.60
66013;DHT22;52783;50.502;8.190;2022-08-21T11:22:18;25.90;32.30
66013;DHT22;52783;50.502;8.190;2022-08-21T11:27:54;26.30;33.10
66013;DHT22;52783;50.502;8.190;2022-08-21T11:30:21;26.40;32.70
66013;DHT22;52783;50.502;8.190;2022-08-21T11:36:30;26.40;31.70
66013;DHT22;52783;50.502;8.190;2022-08-21T11:39:19;26.10;31.40
66013;DHT22;52783;50.502;8.190;2022-08-21T11:42:10;25.70;31.70
66013;DHT22;52783;50.502;8.190;2022-08-21T11:45:02;26.20;32.10
66013;DHT22;52783;50.502;8.190;2022-08-21T11:47:56;26.50;31.60
66013;DHT22;52783;50.502;8.190;2022-08-21T11:50:30;26.50;30.90
66013;DHT22;52783;50.502;8.190;2022-08-21T11:55:57;26.50;31.10
66013;DHT22;52783;50.502;8.190;2022-08-21T11:58:35;26.80;31.70
66013;DHT22;52783;50.502;8.190;2022-08-21T12:01:09;26.80;30.60
66013;DHT22;52783;50.502;8.190;2022-08-21T12:03:42;26.90;30.50
66013;DHT22;52783;50.502;8.190;2022-08-21T12:06:16;26.90;30.30
66013;DHT22;52783;50.502;8.190;2022-08-21T12:09:02;27.00;30.40
66013;DHT22;52783;50.502;8.190;2022-08-21T12:11:29;26.80;29.70
66013;DHT22;52783;50.502;8.190;2022-08-21T12:16:38;26.50;30.10
66013;DHT22;52783;50.502;8.190;2022-08-21T12:21:33;26.80;30.50
66013;DHT22;52783;50.502;8.190;2022-08-21T12:24:01;26.50;29.90
66013;DHT22;52783;50.502;8.190;2022-08-21T12:31:58;26.80;30.40
66013;DHT22;52783;50.502;8.190;2022-08-21T12:34:30;26.90;30.40
66013;DHT22;52783;50.502;8.190;2022-08-21T12:37:01;27.10;30.60
66013;DHT22;52783;50.502;8.190;2022-08-21T12:39:31;27.10;30.30
66013;DHT22;52783;50.502;8.190;2022-08-21T12:42:16;27.00;30.00
66013;DHT22;52783;50.502;8.190;2022-08-21T12:44:55;26.50;29.90
66013;DHT22;52783;50.502;8.190;2022-08-21T12:47:29;26.90;30.10
66013;DHT22;52783;50.502;8.190;2022-08-21T12:52:59;26.90;30.20
66013;DHT22;52783;50.502;8.190;2022-08-21T12:55:29;27.10;30.50
66013;DHT22;52783;50.502;8.190;2022-08-21T12:57:54;27.20;30.10
66013;DHT22;52783;50.502;8.190;2022-08-21T13:00:26;26.90;29.80
66013;DHT22;52783;50.502;8.190;2022-08-21T13:02:52;26.40;30.30
66013;DHT22;52783;50.502;8.190;2022-08-21T13:07:53;26.50;30.20
66013;DHT22;52783;50.502;8.190;2022-08-21T13:10:28;26.90;30.80
66013;DHT22;52783;50.502;8.190;2022-08-21T13:13:00;27.00;29.90
66013;DHT22;52783;50.502;8.190;2022-08-21T13:15:30;27.10;29.90
66013;DHT22;52783;50.502;8.190;2022-08-21T13:17:56;27.30;30.50
66013;DHT22;52783;50.502;8.190;2022-08-21T13:20:35;27.40;30.40
66013;DHT22;52783;50.502;8.190;2022-08-21T13:23:03;27.60;29.80
66013;DHT22;52783;50.502;8.190;2022-08-21T13:25:35;27.40;29.90
66013;DHT22;52783;50.502;8.190;2022-08-21T13:28:07;27.60;29.00
66013;DHT22;52783;50.502;8.190;2022-08-21T13:30:37;27.70;29.50
66013;DHT22;52783;50.502;8.190;2022-08-21T13:33:05;27.60;29.50
66013;DHT22;52783;50.502;8.190;2022-08-21T13:38:24;26.90;30.00
66013;DHT22;52783;50.502;8.190;2022-08-21T13:40:55;26.90;29.40
66013;DHT22;52783;50.502;8.190;2022-08-21T13:43:26;26.60;30.90
66013;DHT22;52783;50.502;8.190;2022-08-21T13:45:54;26.90;30.40
66013;DHT22;52783;50.502;8.190;2022-08-21T13:48:23;26.90;30.40
66013;DHT22;52783;50.502;8.190;2022-08-21T13:50:50;26.70;29.60
66013;DHT22;52783;50.502;8.190;2022-08-21T13:53:32;27.10;29.60
66013;DHT22;52783;50.502;8.190;2022-08-21T13:55:59;27.20;30.10
66013;DHT22;52783;50.502;8.190;2022-08-21T13:58:28;26.60;29.80
66013;DHT22;52783;50.502;8.190;2022-08-21T14:00:55;27.00;29.90
66013;DHT22;52783;50.502;8.190;2022-08-21T14:03:31;27.10;29.80
66013;DHT22;52783;50.502;8.190;2022-08-21T14:05:58;27.30;29.20
66013;DHT22;52783;50.502;8.190;2022-08-21T14:08:29;27.20;28.60
66013;DHT22;52783;50.502;8.190;2022-08-21T14:10:56;27.50;28.30
66013;DHT22;52783;50.502;8.190;2022-08-21T14:16:29;27.40;28.70
66013;DHT22;52783;50.502;8.190;2022-08-21T14:21:40;26.80;28.30
66013;DHT22;52783;50.502;8.190;2022-08-21T14:24:12;27.10;29.10
66013;DHT22;52783;50.502;8.190;2022-08-21T14:27:02;27.20;28.80
66013;DHT22;52783;50.502;8.190;2022-08-21T14:29:34;26.90;28.80
66013;DHT22;52783;50.502;8.190;2022-08-21T14:32:09;26.80;29.90
66013;DHT22;52783;50.502;8.190;2022-08-21T14:34:35;26.50;28.60
66013;DHT22;52783;50.502;8.190;2022-08-21T14:37:00;26.30;29.40
66013;DHT22;52783;50.502;8.190;2022-08-21T14:39:26;26.20;29.10
66013;DHT22;52783;50.502;8.190;2022-08-21T14:41:52;26.20;29.60
66013;DHT22;52783;50.502;8.190;2022-08-21T14:44:19;26.20;29.40
66013;DHT22;52783;50.502;8.190;2022-08-21T14:46:45;26.40;30.00
66013;DHT22;52783;50.502;8.190;2022-08-21T14:49:11;26.40;29.60
66013;DHT22;52783;50.502;8.190;2022-08-21T14:51:37;26.50;29.70
66013;DHT22;52783;50.502;8.190;2022-08-21T14:54:05;26.50;31.50
66013;DHT22;52783;50.502;8.190;2022-08-21T14:56:31;26.40;29.60
66013;DHT22;52783;50.502;8.190;2022-08-21T14:59:02;26.30;29.40
66013;DHT22;52783;50.502;8.190;2022-08-21T15:01:28;26.40;29.90
66013;DHT22;52783;50.502;8.190;2022-08-21T15:03:54;26.10;29.70
66013;DHT22;52783;50.502;8.190;2022-08-21T15:06:19;26.20;29.70
66013;DHT22;52783;50.502;8.190;2022-08-21T15:08:46;26.30;29.50
66013;DHT22;52783;50.502;8.190;2022-08-21T15:11:20;26.40;29.60
66013;DHT22;52783;50.502;8.190;2022-08-21T15:13:47;26.80;30.20
66013;DHT22;52783;50.502;8.190;2022-08-21T15:16:13;26.90;29.10
66013;DHT22;52783;50.502;8.190;2022-08-21T15:18:39;27.10;29.20
66013;DHT22;52783;50.502;8.190;2022-08-21T15:21:05;27.00;28.30
66013;DHT22;52783;50.502;8.190;2022-08-21T15:23:31;26.90;28.80
66013;DHT22;52783;50.502;8.190;2022-08-21T15:25:56;27.00;28.00
66013;DHT22;52783;50.502;8.190;2022-08-21T15:28:25;27.10;28.50
66013;DHT22;52783;50.502;8.190;2022-08-21T15:30:51;26.80;29.10
66013;DHT22;52783;50.502;8.190;2022-08-21T15:33:17;26.90;29.50
66013;DHT22;52783;50.502;8.190;2022-08-21T15:35:44;26.80;28.60
66013;DHT22;52783;50.502;8.190;2022-08-21T15:38:11;26.90;28.90
66013;DHT22;52783;50.502;8.190;2022-08-21T15:40:38;27.10;29.50
66013;DHT22;52783;50.502;8.190;2022-08-21T15:43:06;27.10;29.80
66013;DHT22;52783;50.502;8.190;2022-08-21T15:45:33;27.30;29.80
66013;DHT22;52783;50.502;8.190;2022-08-21T15:47:58;27.50;29.50
66013;DHT22;52783;50.502;8.190;2022-08-21T15:50:24;27.50;28.80
66013;DHT22;52783;50.502;8.190;2022-08-21T15:52:51;27.30;28.90
66013;DHT22;52783;50.502;8.190;2022-08-21T15:55:17;27.10;29.70
66013;DHT22;52783;50.502;8.190;2022-08-21T15:57:45;26.90;28.30
66013;DHT22;52783;50.502;8.190;2022-08-21T16:00:16;26.90;29.20
66013;DHT22;52783;50.502;8.190;2022-08-21T16:02:45;26.90;28.70
66013;DHT22;52783;50.502;8.190;2022-08-21T16:05:11;26.90;29.10
66013;DHT22;52783;50.502;8.190;2022-08-21T16:07:38;26.80;29.00
66013;DHT22;52783;50.502;8.190;2022-08-21T16:10:05;26.70;28.80
66013;DHT22;52783;50.502;8.190;2022-08-21T16:12:34;26.60;29.50
66013;DHT22;52783;50.502;8.190;2022-08-21T16:15:04;26.60;29.20
66013;DHT22;52783;50.502;8.190;2022-08-21T16:17:34;26.50;29.10
66013;DHT22;52783;50.502;8.190;2022-08-21T16:20:03;26.50;29.50
66013;DHT22;52783;50.502;8.190;2022-08-21T16:22:29;26.50;29.70
66013;DHT22;52783;50.502;8.190;2022-08-21T16:24:55;26.50;29.40
66013;DHT22;52783;50.502;8.190;2022-08-21T16:27:21;26.40;29.30
66013;DHT22;52783;50.502;8.190;2022-08-21T16:29:47;26.50;29.60
66013;DHT22;52783;50.502;8.190;2022-08-21T16:32:13;26.40;29.40
66013;DHT22;52783;50.502;8.190;2022-08-21T16:34:42;26.30;29.40
66013;DHT22;52783;50.502;8.190;2022-08-21T16:37:09;26.30;29.70
66013;DHT22;52783;50.502;8.190;2022-08-21T16:39:35;26.30;29.90
66013;DHT22;52783;50.502;8.190;2022-08-21T16:42:01;26.20;29.70
66013;DHT22;52783;50.502;8.190;2022-08-21T16:44:27;26.20;30.00
66013;DHT22;52783;50.502;8.190;2022-08-21T16:46:52;26.30;30.00
66013;DHT22;52783;50.502;8.190;2022-08-21T16:49:18;26.30;29.80
66013;DHT22;52783;50.502;8.190;2022-08-21T16:51:44;26.20;30.00
66013;DHT22;52783;50.502;8.190;2022-08-21T16:54:10;26.20;30.50
66013;DHT22;52783;50.502;8.190;2022-08-21T16:56:36;26.20;30.40
66013;DHT22;52783;50.502;8.190;2022-08-21T16:59:02;26.10;29.80